Terminal Aerodrome Forecast
Issued by NWS Brownsville, TX

Home | Current Version | Previous Version | Text Only | Print | Product List | Glossary On
Versions: 1 2 3 4 5 6 7 8 9 10 11 12 13 14 15 16 17 18 19 20 21 22 23 24 25 26 27
000
FTUS44 KBRO 181400 AAB
TAFMFE
TAF AMD
KMFE 181452Z 1815/1912 12005KT P6SM FEW015 SCT250
      TEMPO 1815/1817 BKN015
     FM181700 15014KT P6SM SCT040 BKN250
     FM190000 13010KT P6SM BKN250=

USA.gov is the U.S. government's official web portal to all federal, state and local government web resources and services.